createdAt,value
2017-12-22T00:00:16.693Z,21.31
2017-12-22T00:01:00.750Z,21.29
2017-12-22T00:01:44.528Z,21.24
2017-12-22T00:02:13.233Z,21.19
2017-12-22T00:02:56.147Z,21.25
2017-12-22T00:03:38.635Z,21.32
2017-12-22T00:04:06.587Z,21.28
2017-12-22T00:04:35.523Z,21.34
2017-12-22T00:05:05.035Z,21.27
2017-12-22T00:05:48.368Z,21.29
2017-12-22T00:06:17.522Z,21.27
2017-12-22T00:07:01.192Z,21.31
2017-12-22T00:07:30.114Z,21.37
2017-12-22T00:08:58.144Z,21.19
2017-12-22T00:10:25.214Z,21.19
2017-12-22T00:11:09.064Z,21.28
2017-12-22T00:12:06.061Z,21.25
2017-12-22T00:13:18.416Z,21.32
2017-12-22T00:14:32.361Z,21.38
2017-12-22T00:16:13.178Z,21.29
2017-12-22T00:16:55.905Z,21.32
2017-12-22T00:17:52.912Z,21.28
2017-12-22T00:18:35.571Z,21.27
2017-12-22T00:19:03.611Z,21.25
2017-12-22T00:19:31.637Z,21.17
2017-12-22T00:20:00.857Z,21.27
2017-12-22T00:20:28.888Z,21.17
2017-12-22T00:20:57.724Z,21.17
2017-12-22T00:22:10.836Z,21.19
2017-12-22T00:22:39.407Z,21.24
2017-12-22T00:23:08.270Z,21.27
2017-12-22T00:23:37.123Z,21.22
2017-12-22T00:24:05.044Z,21.28
2017-12-22T00:24:48.401Z,21.28
2017-12-22T00:25:32.402Z,21.25
2017-12-22T00:26:01.050Z,21.24
2017-12-22T00:26:30.932Z,21.25
2017-12-22T00:27:00.961Z,21.22
2017-12-22T00:28:55.973Z,21.28
2017-12-22T00:29:54.939Z,21.28
2017-12-22T00:31:23.942Z,21.27
2017-12-22T00:32:06.288Z,21.29
2017-12-22T00:32:49.765Z,21.27
2017-12-22T00:33:47.827Z,21.34
2017-12-22T00:34:16.280Z,21.37
2017-12-22T00:35:04.986Z,21.32
2017-12-22T00:35:33.804Z,21.35
2017-12-22T00:36:02.883Z,21.35
2017-12-22T00:36:45.568Z,21.38
2017-12-22T00:37:14.151Z,21.37
2017-12-22T00:38:40.277Z,21.32
2017-12-22T00:39:22.816Z,21.29
2017-12-22T00:40:20.392Z,21.35
2017-12-22T00:40:49.675Z,21.34
2017-12-22T00:41:18.887Z,21.4
2017-12-22T00:41:47.246Z,21.32
2017-12-22T00:42:16.831Z,21.31
2017-12-22T00:42:45.688Z,21.29
2017-12-22T00:43:28.925Z,21.42
2017-12-22T00:43:56.931Z,21.46
2017-12-22T00:44:25.422Z,21.4
2017-12-22T00:45:08.538Z,21.43
2017-12-22T00:45:37.047Z,21.43
2017-12-22T00:46:05.497Z,21.38
2017-12-22T00:46:59.910Z,21.37
2017-12-22T00:47:28.842Z,21.44
2017-12-22T00:47:57.289Z,21.38
2017-12-22T00:48:39.841Z,21.42
2017-12-22T00:49:24.842Z,21.38
2017-12-22T00:49:56.114Z,21.42
2017-12-22T00:51:23.068Z,21.37
2017-12-22T00:52:06.831Z,21.31
2017-12-22T00:52:36.117Z,21.4
2017-12-22T00:53:04.714Z,21.38
2017-12-22T00:54:30.151Z,21.34
2017-12-22T00:55:41.804Z,21.29
2017-12-22T00:56:10.839Z,21.29
2017-12-22T00:56:56.875Z,21.31
2017-12-22T00:57:39.733Z,21.29
2017-12-22T00:58:08.859Z,21.29
2017-12-22T00:58:38.203Z,21.19
2017-12-22T00:59:07.210Z,21.29
2017-12-22T00:59:36.456Z,21.19
2017-12-22T01:01:02.486Z,21.13
2017-12-22T01:02:28.512Z,21.04
2017-12-22T01:03:40.798Z,20.89
2017-12-22T01:04:09.555Z,20.84
2017-12-22T01:04:38.119Z,20.82
2017-12-22T01:05:06.972Z,20.7
2017-12-22T01:05:50.591Z,20.73
2017-12-22T01:06:18.836Z,20.61
2017-12-22T01:08:00.673Z,20.31
2017-12-22T01:08:28.899Z,20.33
2017-12-22T01:08:56.909Z,20.38
2017-12-22T01:09:42.215Z,20.2
2017-12-22T01:10:10.250Z,20.21
2017-12-22T01:10:38.709Z,20.23
2017-12-22T01:11:22.462Z,20.2
2017-12-22T01:11:50.504Z,20.14
2017-12-22T01:12:18.423Z,20.13
2017-12-22T01:13:00.977Z,20.06
2017-12-22T01:13:28.974Z,20.06
2017-12-22T01:14:12.218Z,20.02
2017-12-22T01:14:40.235Z,20.13
2017-12-22T01:15:08.656Z,20.02
2017-12-22T01:15:36.686Z,20.08
2017-12-22T01:16:04.937Z,20.06
2017-12-22T01:16:33.493Z,20.08
2017-12-22T01:17:01.932Z,20.06
2017-12-22T01:17:30.678Z,20.05
2017-12-22T01:17:59.835Z,20.08
2017-12-22T01:18:28.961Z,20.14
2017-12-22T01:18:57.947Z,20.01
2017-12-22T01:19:27.200Z,20.1
2017-12-22T01:20:38.612Z,20.1
2017-12-22T01:21:06.524Z,20.05
2017-12-22T01:21:35.467Z,20.05
2017-12-22T01:22:03.838Z,20.02
2017-12-22T01:22:32.696Z,20.05
2017-12-22T01:23:01.461Z,20.13
2017-12-22T01:23:30.050Z,20.05
2017-12-22T01:23:58.493Z,20.14
2017-12-22T01:24:26.627Z,20.1
2017-12-22T01:24:55.508Z,20.1
2017-12-22T01:26:07.874Z,20.06
2017-12-22T01:26:50.821Z,20.08
2017-12-22T01:27:19.252Z,20.08
2017-12-22T01:27:47.793Z,20.14
2017-12-22T01:28:53.200Z,20.1
2017-12-22T01:29:22.438Z,20.08
2017-12-22T01:29:52.157Z,20.05
2017-12-22T01:30:20.612Z,20.08
2017-12-22T01:30:50.372Z,20.1
2017-12-22T01:32:02.471Z,20.13
2017-12-22T01:32:31.162Z,20.18
2017-12-22T01:32:59.541Z,20.17
2017-12-22T01:33:27.549Z,20.11
2017-12-22T01:33:55.569Z,20.02
2017-12-22T01:34:24.435Z,20.13
2017-12-22T01:34:53.328Z,20.08
2017-12-22T01:35:21.336Z,20.11
2017-12-22T01:35:49.340Z,20.11
2017-12-22T01:36:22.388Z,20.13
2017-12-22T01:37:06.211Z,19.99
2017-12-22T01:37:34.029Z,20.05
2017-12-22T01:38:02.070Z,20.18
2017-12-22T01:38:31.027Z,20.06
2017-12-22T01:39:01.551Z,20.03
2017-12-22T01:39:29.975Z,20.11
2017-12-22T01:39:58.414Z,20.21
2017-12-22T01:40:27.803Z,20.13
2017-12-22T01:40:57.070Z,20.2
2017-12-22T01:42:51.760Z,20.16
2017-12-22T01:43:19.991Z,20.2
2017-12-22T01:43:48.839Z,20.2
2017-12-22T01:44:17.281Z,20.13
2017-12-22T01:45:45.624Z,20.05
2017-12-22T01:46:14.476Z,20.06
2017-12-22T01:46:43.026Z,20.17
2017-12-22T01:47:10.953Z,20.13
2017-12-22T01:47:38.950Z,20.16
2017-12-22T01:48:07.402Z,20.16
2017-12-22T01:48:35.418Z,20.13
2017-12-22T01:49:03.438Z,20.28
2017-12-22T01:49:31.346Z,20.21
2017-12-22T01:49:59.796Z,20.29
2017-12-22T01:50:29.825Z,20.16
2017-12-22T01:50:57.857Z,20.18
2017-12-22T01:51:26.314Z,20.24
2017-12-22T01:51:55.693Z,20.23
2017-12-22T01:52:24.113Z,20.18
2017-12-22T01:54:04.967Z,20.26
2017-12-22T01:54:37.548Z,20.21
2017-12-22T01:55:05.456Z,20.28
2017-12-22T01:55:33.688Z,20.29
2017-12-22T01:56:01.773Z,20.26
2017-12-22T01:56:29.761Z,20.26
2017-12-22T01:56:58.201Z,20.31
2017-12-22T01:57:26.624Z,20.31
2017-12-22T01:58:37.607Z,20.17
2017-12-22T01:59:06.832Z,20.23
2017-12-22T01:59:35.676Z,20.21
2017-12-22T02:00:04.552Z,20.24
2017-12-22T02:00:34.332Z,20.18
2017-12-22T02:01:03.609Z,20.21
2017-12-22T02:01:32.318Z,20.2
2017-12-22T02:02:00.474Z,20.21
2017-12-22T02:02:44.199Z,20.16
2017-12-22T02:03:13.328Z,20.13
2017-12-22T02:03:42.511Z,20.17
2017-12-22T02:04:10.972Z,20.26
2017-12-22T02:06:01.544Z,20.21
2017-12-22T02:06:29.995Z,20.29
2017-12-22T02:06:58.001Z,20.21
2017-12-22T02:07:55.080Z,20.29
2017-12-22T02:08:52.886Z,20.31
2017-12-22T02:09:21.335Z,20.23
2017-12-22T02:09:49.984Z,20.23
2017-12-22T02:10:18.410Z,20.24
2017-12-22T02:10:46.813Z,20.31
2017-12-22T02:11:16.526Z,20.32
2017-12-22T02:11:48.287Z,20.23
2017-12-22T02:13:00.596Z,20.26
2017-12-22T02:13:29.888Z,20.29
2017-12-22T02:15:25.372Z,20.24
2017-12-22T02:16:36.580Z,20.33
2017-12-22T02:17:05.256Z,20.31
2017-12-22T02:17:48.601Z,20.28
2017-12-22T02:18:17.114Z,20.28
2017-12-22T02:19:22.870Z,20.35
2017-12-22T02:20:05.918Z,20.35
2017-12-22T02:21:59.977Z,20.28
2017-12-22T02:22:32.025Z,20.28
2017-12-22T02:23:00.045Z,20.23
2017-12-22T02:23:29.079Z,20.32
2017-12-22T02:23:57.086Z,20.28
2017-12-22T02:25:37.001Z,20.35
2017-12-22T02:26:05.035Z,20.33
2017-12-22T02:26:33.978Z,20.31
2017-12-22T02:27:01.904Z,20.31
2017-12-22T02:27:30.352Z,20.33
2017-12-22T02:28:28.216Z,20.33
2017-12-22T02:28:56.641Z,20.39
2017-12-22T02:29:24.665Z,20.39
2017-12-22T02:30:07.536Z,20.43
2017-12-22T02:30:35.634Z,20.38
2017-12-22T02:31:09.120Z,20.48
2017-12-22T02:32:07.745Z,20.35
2017-12-22T02:32:36.280Z,20.33
2017-12-22T02:34:07.008Z,20.35
2017-12-22T02:34:36.102Z,20.35
2017-12-22T02:35:04.131Z,20.38
2017-12-22T02:35:38.314Z,20.36
2017-12-22T02:36:49.868Z,20.28
2017-12-22T02:37:18.312Z,20.33
2017-12-22T02:37:46.795Z,20.26
2017-12-22T02:38:16.536Z,20.32
2017-12-22T02:38:44.378Z,20.33
2017-12-22T02:39:12.831Z,20.38
2017-12-22T02:39:41.350Z,20.36
2017-12-22T02:40:10.156Z,20.33
2017-12-22T02:41:07.740Z,20.36
2017-12-22T02:41:35.654Z,20.39
2017-12-22T02:42:03.999Z,20.33
2017-12-22T02:42:35.497Z,20.47
2017-12-22T02:43:03.944Z,20.43
2017-12-22T02:43:33.257Z,20.52
2017-12-22T02:44:01.679Z,20.58
2017-12-22T02:44:45.026Z,20.43
2017-12-22T02:45:13.450Z,20.42
2017-12-22T02:45:44.739Z,20.35
2017-12-22T02:46:14.101Z,20.35
2017-12-22T02:46:43.138Z,20.31
2017-12-22T02:47:11.161Z,20.48
2017-12-22T02:47:43.058Z,20.36
2017-12-22T02:48:12.064Z,20.39
2017-12-22T02:49:52.094Z,20.41
2017-12-22T02:51:19.323Z,20.43
2017-12-22T02:51:48.455Z,20.43
2017-12-22T02:52:17.329Z,20.47
2017-12-22T02:53:43.646Z,20.39
2017-12-22T02:54:26.102Z,20.42
2017-12-22T02:54:54.631Z,20.52
2017-12-22T02:55:22.584Z,20.48
2017-12-22T02:55:51.544Z,20.5
2017-12-22T02:56:19.456Z,20.5
2017-12-22T02:56:47.476Z,20.43
2017-12-22T02:57:15.490Z,20.48
2017-12-22T02:57:44.827Z,20.5
2017-12-22T02:58:13.511Z,20.54
2017-12-22T02:58:42.175Z,20.48
2017-12-22T02:59:10.640Z,20.5
2017-12-22T02:59:38.885Z,20.55
2017-12-22T03:00:07.588Z,20.57
2017-12-22T03:00:36.033Z,20.57
2017-12-22T03:04:11.303Z,20.54
2017-12-22T03:04:39.229Z,20.52
2017-12-22T03:05:07.973Z,20.64
2017-12-22T03:05:36.417Z,20.67
2017-12-22T03:06:04.430Z,20.66
2017-12-22T03:06:33.294Z,20.62
2017-12-22T03:07:05.600Z,20.66
2017-12-22T03:07:33.627Z,20.69
2017-12-22T03:08:01.654Z,20.66
2017-12-22T03:08:29.665Z,20.67
2017-12-22T03:08:58.472Z,20.7
2017-12-22T03:09:27.431Z,20.67
2017-12-22T03:09:56.277Z,20.76
2017-12-22T03:10:25.080Z,20.72
2017-12-22T03:11:49.905Z,20.73
2017-12-22T03:13:45.244Z,20.7
2017-12-22T03:14:13.684Z,20.72
2017-12-22T03:14:56.655Z,20.72
2017-12-22T03:16:51.207Z,20.57
2017-12-22T03:17:19.671Z,20.55
2017-12-22T03:17:47.696Z,20.55
2017-12-22T03:18:16.151Z,20.54
2017-12-22T03:18:44.596Z,20.55
2017-12-22T03:19:12.453Z,20.52
2017-12-22T03:19:56.188Z,20.42
2017-12-22T03:20:24.543Z,20.52
2017-12-22T03:20:53.398Z,20.47
2017-12-22T03:21:21.817Z,20.43
2017-12-22T03:22:04.887Z,20.39
2017-12-22T03:23:45.275Z,20.33
2017-12-22T03:25:10.958Z,20.33
2017-12-22T03:25:39.545Z,20.36
2017-12-22T03:26:08.370Z,20.42
2017-12-22T03:26:36.735Z,20.39
2017-12-22T03:27:05.314Z,20.36
2017-12-22T03:29:30.564Z,20.32
2017-12-22T03:29:58.582Z,20.39
2017-12-22T03:30:27.919Z,20.36
2017-12-22T03:31:10.369Z,20.41
2017-12-22T03:31:38.378Z,20.32
2017-12-22T03:32:06.909Z,20.54
2017-12-22T03:34:31.164Z,20.5
2017-12-22T03:34:59.178Z,20.57
2017-12-22T03:35:28.020Z,20.57
2017-12-22T03:35:57.367Z,20.5
2017-12-22T03:36:25.413Z,20.59
2017-12-22T03:39:31.674Z,20.35
2017-12-22T03:39:59.680Z,20.5
2017-12-22T03:40:28.246Z,20.51
2017-12-22T03:40:56.683Z,20.41
2017-12-22T03:41:26.011Z,20.36
2017-12-22T03:42:52.201Z,20.32
2017-12-22T03:43:20.042Z,20.32
2017-12-22T03:45:17.328Z,20.29
2017-12-22T03:46:15.249Z,20.26
2017-12-22T03:47:14.856Z,20.29
2017-12-22T03:47:43.274Z,20.35
2017-12-22T03:48:11.176Z,20.35
2017-12-22T03:48:39.589Z,20.31
2017-12-22T03:49:08.874Z,20.33
2017-12-22T03:49:36.777Z,20.29
2017-12-22T03:50:05.711Z,20.33
2017-12-22T03:50:34.055Z,20.33
2017-12-22T03:51:03.020Z,20.41
2017-12-22T03:51:31.360Z,20.36
2017-12-22T03:52:28.423Z,20.42
2017-12-22T03:52:56.471Z,20.35
2017-12-22T03:53:24.496Z,20.43
2017-12-22T03:53:52.492Z,20.39
2017-12-22T03:54:21.318Z,20.36
2017-12-22T03:54:49.365Z,20.38
2017-12-22T03:55:18.340Z,20.32
2017-12-22T03:55:46.342Z,20.39
2017-12-22T03:56:57.952Z,20.38
2017-12-22T03:57:26.020Z,20.38
2017-12-22T03:57:54.492Z,20.39
2017-12-22T03:58:22.838Z,20.39
2017-12-22T03:58:51.645Z,20.41
2017-12-22T03:59:19.463Z,20.48
2017-12-22T03:59:49.104Z,20.41
2017-12-22T04:00:17.552Z,20.5
2017-12-22T04:00:45.992Z,20.48
2017-12-22T04:02:25.602Z,20.35
2017-12-22T04:02:54.681Z,20.42
2017-12-22T04:03:23.323Z,20.41
2017-12-22T04:03:51.321Z,20.38
2017-12-22T04:04:20.183Z,20.39
2017-12-22T04:05:31.800Z,20.5
2017-12-22T04:06:00.044Z,20.43
2017-12-22T04:06:28.403Z,20.48
2017-12-22T04:06:56.939Z,20.48
2017-12-22T04:07:25.683Z,20.48
2017-12-22T04:07:54.112Z,20.48
2017-12-22T04:08:22.110Z,20.5
2017-12-22T04:08:50.179Z,20.5
2017-12-22T04:10:17.039Z,20.43
2017-12-22T04:10:46.355Z,20.42
2017-12-22T04:11:14.371Z,20.54
2017-12-22T04:14:06.625Z,20.64
2017-12-22T04:14:35.478Z,20.67
2017-12-22T04:15:04.326Z,20.7
2017-12-22T04:15:32.756Z,20.66
2017-12-22T04:16:01.514Z,20.67
2017-12-22T04:16:30.291Z,20.72
2017-12-22T04:16:58.839Z,20.62
2017-12-22T04:17:41.725Z,20.73
2017-12-22T04:18:10.157Z,20.69
2017-12-22T04:18:38.399Z,20.69
2017-12-22T04:19:07.174Z,20.64
2017-12-22T04:19:35.516Z,20.7
2017-12-22T04:20:04.590Z,20.69
2017-12-22T04:20:32.922Z,20.66
2017-12-22T04:21:00.950Z,20.7
2017-12-22T04:21:29.392Z,20.64
2017-12-22T04:22:13.560Z,20.72
2017-12-22T04:22:41.582Z,20.66
2017-12-22T04:23:09.601Z,20.74
2017-12-22T04:23:37.633Z,20.69
2017-12-22T04:24:06.063Z,20.57
2017-12-22T04:24:34.404Z,20.58
2017-12-22T04:25:02.423Z,20.76
2017-12-22T04:25:45.093Z,20.59
2017-12-22T04:26:14.096Z,20.66
2017-12-22T04:26:43.738Z,20.62
2017-12-22T04:27:17.310Z,20.62
2017-12-22T04:28:40.367Z,20.59
2017-12-22T04:29:08.709Z,20.55
2017-12-22T04:29:37.546Z,20.48
2017-12-22T04:30:06.762Z,20.5
2017-12-22T04:30:36.524Z,20.43
2017-12-22T04:31:05.260Z,20.29
2017-12-22T04:31:33.177Z,20.41
2017-12-22T04:32:01.204Z,20.36
2017-12-22T04:32:29.224Z,20.35
2017-12-22T04:32:57.243Z,20.42
2017-12-22T04:34:08.254Z,20.43
2017-12-22T04:34:36.274Z,20.38
2017-12-22T04:35:04.638Z,20.35
2017-12-22T04:35:33.062Z,20.36
2017-12-22T04:36:01.584Z,20.36
2017-12-22T04:36:29.506Z,20.32
2017-12-22T04:36:57.933Z,20.36
2017-12-22T04:37:25.962Z,20.35
2017-12-22T04:38:09.284Z,20.38
2017-12-22T04:38:38.606Z,20.35
2017-12-22T04:39:07.357Z,20.33
2017-12-22T04:39:35.831Z,20.32
2017-12-22T04:40:04.270Z,20.33
2017-12-22T04:40:32.209Z,20.39
2017-12-22T04:41:00.537Z,20.39
2017-12-22T04:41:28.605Z,20.33
2017-12-22T04:42:11.683Z,20.38
2017-12-22T04:42:55.438Z,20.39
2017-12-22T04:43:23.873Z,20.31
2017-12-22T04:43:52.706Z,20.33
2017-12-22T04:44:21.768Z,20.43
2017-12-22T04:46:02.083Z,20.47
2017-12-22T04:46:30.106Z,20.52
2017-12-22T04:46:58.130Z,20.43
2017-12-22T04:47:26.140Z,20.48
2017-12-22T04:47:54.915Z,20.47
2017-12-22T04:48:37.467Z,20.41
2017-12-22T04:49:05.942Z,20.33
2017-12-22T04:49:34.696Z,20.39
2017-12-22T04:50:02.711Z,20.35
2017-12-22T04:50:30.662Z,20.48
2017-12-22T04:50:59.491Z,20.43
2017-12-22T04:51:27.724Z,20.42
2017-12-22T04:52:54.451Z,20.43
2017-12-22T04:53:22.778Z,20.48
2017-12-22T04:53:51.224Z,20.39
2017-12-22T04:54:20.910Z,20.39
2017-12-22T04:54:49.697Z,20.42
2017-12-22T04:55:18.491Z,20.43
2017-12-22T04:55:46.415Z,20.39
2017-12-22T04:56:15.031Z,20.41
2017-12-22T04:56:43.508Z,20.48
2017-12-22T04:57:12.233Z,20.42
2017-12-22T04:58:07.343Z,20.32
2017-12-22T04:58:35.774Z,20.41
2017-12-22T04:59:04.645Z,20.31
2017-12-22T04:59:33.098Z,20.33
2017-12-22T05:00:01.965Z,20.33
2017-12-22T05:00:30.836Z,20.35
2017-12-22T05:00:58.820Z,20.38
2017-12-22T05:01:26.750Z,20.39
2017-12-22T05:01:55.625Z,20.33
2017-12-22T05:02:23.972Z,20.41
2017-12-22T05:02:51.993Z,20.41
2017-12-22T05:03:20.765Z,20.36
2017-12-22T05:03:49.624Z,20.32
2017-12-22T05:04:18.879Z,20.33
2017-12-22T05:04:47.245Z,20.33
2017-12-22T05:05:15.669Z,20.35
2017-12-22T05:05:44.090Z,20.43
2017-12-22T05:06:12.030Z,20.42
2017-12-22T05:06:40.472Z,20.32
2017-12-22T05:07:09.178Z,20.47
2017-12-22T05:07:37.426Z,20.38
2017-12-22T05:08:05.423Z,20.41
2017-12-22T05:08:33.866Z,20.39
2017-12-22T05:09:03.618Z,20.39
2017-12-22T05:09:32.383Z,20.39
2017-12-22T05:10:01.321Z,20.41
2017-12-22T05:10:29.778Z,20.41
2017-12-22T05:10:57.791Z,20.33
2017-12-22T05:11:26.224Z,20.32
2017-12-22T05:11:55.505Z,20.33
2017-12-22T05:12:24.780Z,20.35
2017-12-22T05:12:53.104Z,20.38
2017-12-22T05:13:21.549Z,20.36
2017-12-22T05:14:33.129Z,20.32
2017-12-22T05:15:02.322Z,20.32
2017-12-22T05:15:31.186Z,20.33
2017-12-22T05:15:59.720Z,20.36
2017-12-22T05:16:27.580Z,20.35
2017-12-22T05:16:56.534Z,20.38
2017-12-22T05:17:24.613Z,20.28
2017-12-22T05:17:53.541Z,20.35
2017-12-22T05:18:36.404Z,20.33
2017-12-22T05:19:04.419Z,20.35
2017-12-22T05:19:33.128Z,20.31
2017-12-22T05:20:01.044Z,20.38
2017-12-22T05:20:29.069Z,20.36
2017-12-22T05:20:58.432Z,20.35
2017-12-22T05:21:26.796Z,20.36
2017-12-22T05:21:54.667Z,20.32
2017-12-22T05:22:23.290Z,20.35
2017-12-22T05:22:51.128Z,20.41
2017-12-22T05:23:34.089Z,20.35
2017-12-22T05:24:03.477Z,20.36
2017-12-22T05:24:47.117Z,20.32
2017-12-22T05:25:15.123Z,20.33
2017-12-22T05:25:43.870Z,20.33
2017-12-22T05:26:12.594Z,20.33
2017-12-22T05:26:41.773Z,20.32
2017-12-22T05:27:10.412Z,20.29
2017-12-22T05:27:38.442Z,20.33
2017-12-22T05:28:06.905Z,20.32
2017-12-22T05:28:35.359Z,20.33
2017-12-22T05:29:04.125Z,20.36
2017-12-22T05:29:32.554Z,20.35
2017-12-22T05:30:00.568Z,20.33
2017-12-22T05:30:29.516Z,20.32
2017-12-22T05:30:58.296Z,20.35
2017-12-22T05:31:30.177Z,20.33
2017-12-22T05:31:59.854Z,20.36
2017-12-22T05:32:28.680Z,20.38
2017-12-22T05:33:12.135Z,20.39
2017-12-22T05:33:45.671Z,20.41
2017-12-22T05:34:13.699Z,20.39
2017-12-22T05:34:42.470Z,20.38
2017-12-22T05:35:10.483Z,20.36
2017-12-22T05:35:41.526Z,20.42
2017-12-22T05:36:09.439Z,20.39
2017-12-22T05:37:50.894Z,20.33
2017-12-22T05:39:47.157Z,20.33
2017-12-22T05:41:14.323Z,20.41
2017-12-22T05:42:11.819Z,20.33
2017-12-22T05:43:23.342Z,20.43
2017-12-22T05:43:52.808Z,20.5
2017-12-22T05:46:02.764Z,20.41
2017-12-22T05:46:30.613Z,20.42
2017-12-22T05:46:59.891Z,20.54
2017-12-22T05:47:44.033Z,20.58
2017-12-22T05:48:18.519Z,20.57
2017-12-22T05:48:47.619Z,20.58
2017-12-22T05:49:45.396Z,20.52
2017-12-22T05:50:14.249Z,20.62
2017-12-22T05:50:42.266Z,20.55
2017-12-22T05:51:39.329Z,20.58
2017-12-22T05:52:08.092Z,20.54
2017-12-22T05:52:36.010Z,20.64
2017-12-22T05:53:18.540Z,20.58
2017-12-22T05:53:46.979Z,20.57
2017-12-22T05:54:15.834Z,20.59
2017-12-22T05:54:43.845Z,20.55
2017-12-22T05:55:12.184Z,20.55
2017-12-22T05:55:40.218Z,20.62
2017-12-22T05:56:08.248Z,20.62
2017-12-22T05:56:37.240Z,20.62
2017-12-22T05:57:06.211Z,20.52
2017-12-22T05:57:34.674Z,20.64
2017-12-22T05:58:32.942Z,20.55
2017-12-22T05:59:01.392Z,20.69
2017-12-22T05:59:30.634Z,20.52
2017-12-22T05:59:58.649Z,20.55
2017-12-22T06:00:26.672Z,20.52
2017-12-22T06:00:54.696Z,20.58
2017-12-22T06:02:20.628Z,20.58
2017-12-22T06:02:50.054Z,20.55
2017-12-22T06:03:19.819Z,20.62
2017-12-22T06:03:48.757Z,20.62
2017-12-22T06:04:17.613Z,20.67
2017-12-22T06:04:45.935Z,20.73
2017-12-22T06:06:40.461Z,20.69
2017-12-22T06:07:09.334Z,20.74
2017-12-22T06:07:38.268Z,20.64
2017-12-22T06:08:07.085Z,20.73
2017-12-22T06:08:49.454Z,20.67
2017-12-22T06:09:17.367Z,20.64
2017-12-22T06:09:46.041Z,20.62
2017-12-22T06:10:43.897Z,20.66
2017-12-22T06:11:12.130Z,20.7
2017-12-22T06:11:40.986Z,20.73
2017-12-22T06:12:09.404Z,20.66
2017-12-22T06:12:37.838Z,20.72
2017-12-22T06:13:06.269Z,20.66
2017-12-22T06:13:35.536Z,20.62
2017-12-22T06:14:03.449Z,20.66
2017-12-22T06:14:32.660Z,20.59
2017-12-22T06:15:01.509Z,20.57
2017-12-22T06:15:30.356Z,20.55
2017-12-22T06:15:58.393Z,20.59
2017-12-22T06:16:27.228Z,20.5
2017-12-22T06:18:22.130Z,20.61
2017-12-22T06:18:51.110Z,20.58
2017-12-22T06:19:19.533Z,20.55
2017-12-22T06:19:48.336Z,20.55
2017-12-22T06:20:17.659Z,20.51
2017-12-22T06:21:57.486Z,20.58
2017-12-22T06:22:26.666Z,20.58
2017-12-22T06:22:54.794Z,20.51
2017-12-22T06:23:52.528Z,20.57
2017-12-22T06:24:21.588Z,20.62
2017-12-22T06:24:49.476Z,20.55
2017-12-22T06:25:18.433Z,20.52
2017-12-22T06:26:31.267Z,20.58
2017-12-22T06:26:59.886Z,20.52
2017-12-22T06:27:28.460Z,20.52
2017-12-22T06:28:55.501Z,20.58
2017-12-22T06:29:39.237Z,20.55
2017-12-22T06:30:08.092Z,20.55
2017-12-22T06:31:02.985Z,20.51
2017-12-22T06:31:31.526Z,20.58
2017-12-22T06:32:00.286Z,20.55
2017-12-22T06:32:28.467Z,20.57
2017-12-22T06:32:56.911Z,20.59
2017-12-22T06:33:26.573Z,20.51
2017-12-22T06:35:06.872Z,20.64
2017-12-22T06:35:36.435Z,20.72
2017-12-22T06:36:30.788Z,20.58
2017-12-22T06:36:59.737Z,20.58
2017-12-22T06:38:53.727Z,20.51
2017-12-22T06:39:22.571Z,20.55
2017-12-22T06:40:16.843Z,20.48
2017-12-22T06:40:44.885Z,20.5
2017-12-22T06:41:14.393Z,20.47
2017-12-22T06:41:58.112Z,20.54
2017-12-22T06:42:55.081Z,20.43
2017-12-22T06:43:23.327Z,20.52
2017-12-22T06:44:34.884Z,20.41
2017-12-22T06:45:02.906Z,20.41
2017-12-22T06:46:08.419Z,20.47
2017-12-22T06:46:38.143Z,20.43
2017-12-22T06:47:06.265Z,20.47
2017-12-22T06:47:35.118Z,20.36
2017-12-22T06:48:03.486Z,20.51
2017-12-22T06:48:31.926Z,20.48
2017-12-22T06:49:14.459Z,20.47
2017-12-22T06:49:42.489Z,20.42
2017-12-22T06:50:40.908Z,20.42
2017-12-22T06:52:08.077Z,20.43
2017-12-22T06:52:36.422Z,20.43
2017-12-22T06:53:04.444Z,20.43
2017-12-22T06:53:32.430Z,20.36
2017-12-22T06:54:01.358Z,20.38
2017-12-22T06:54:30.303Z,20.42
2017-12-22T06:55:14.972Z,20.36
2017-12-22T06:55:57.555Z,20.41
2017-12-22T06:56:31.868Z,20.39
2017-12-22T06:57:02.775Z,20.36
2017-12-22T06:57:39.197Z,20.35
2017-12-22T06:58:37.040Z,20.51
2017-12-22T06:59:06.111Z,20.35
2017-12-22T06:59:34.162Z,20.43
2017-12-22T07:00:01.997Z,20.47
2017-12-22T07:00:46.265Z,20.52
2017-12-22T07:01:14.893Z,20.35
2017-12-22T07:01:43.263Z,20.48
2017-12-22T07:02:11.438Z,20.39
2017-12-22T07:02:40.691Z,20.43
2017-12-22T07:03:08.709Z,20.51
2017-12-22T07:04:49.154Z,20.38
2017-12-22T07:05:18.674Z,20.41
2017-12-22T07:06:02.544Z,20.43
2017-12-22T07:06:31.375Z,20.33
2017-12-22T07:07:19.029Z,20.33
2017-12-22T07:07:48.214Z,20.38
2017-12-22T07:12:12.659Z,20.28
2017-12-22T07:12:42.102Z,20.31
2017-12-22T07:13:53.238Z,20.2
2017-12-22T07:14:22.099Z,20.28
2017-12-22T07:14:50.120Z,20.21
2017-12-22T07:15:18.857Z,20.24
2017-12-22T07:15:48.143Z,20.17
2017-12-22T07:16:16.127Z,20.13
2017-12-22T07:16:45.947Z,20.13
2017-12-22T07:17:14.677Z,20.16
2017-12-22T07:18:27.082Z,20.14
2017-12-22T07:18:56.277Z,20.2
2017-12-22T07:19:25.555Z,20.2
2017-12-22T07:19:53.724Z,20.16
2017-12-22T07:20:22.173Z,20.28
2017-12-22T07:20:50.195Z,20.21
2017-12-22T07:21:18.648Z,20.29
2017-12-22T07:21:47.093Z,20.29
2017-12-22T07:22:47.747Z,20.28
2017-12-22T07:23:16.178Z,20.17
2017-12-22T07:23:44.831Z,20.23
2017-12-22T07:24:43.113Z,20.13
2017-12-22T07:25:12.388Z,20.21
2017-12-22T07:25:41.505Z,20.29
2017-12-22T07:26:10.024Z,20.31
2017-12-22T07:26:38.371Z,20.28
2017-12-22T07:27:07.166Z,20.26
2017-12-22T07:27:36.007Z,20.29
2017-12-22T07:28:04.460Z,20.26
2017-12-22T07:29:10.234Z,20.32
2017-12-22T07:30:21.617Z,20.29
2017-12-22T07:30:50.891Z,20.28
2017-12-22T07:31:19.479Z,20.32
2017-12-22T07:31:47.761Z,20.31
2017-12-22T07:32:16.194Z,20.36
2017-12-22T07:32:44.191Z,20.28
2017-12-22T07:33:55.777Z,20.29
2017-12-22T07:34:24.620Z,20.39
2017-12-22T07:34:54.014Z,20.31
2017-12-22T07:35:22.603Z,20.32
2017-12-22T07:37:02.529Z,20.35
2017-12-22T07:37:30.760Z,20.41
2017-12-22T07:37:59.368Z,20.35
2017-12-22T07:38:27.374Z,20.36
2017-12-22T07:39:10.769Z,20.39
2017-12-22T07:39:40.309Z,20.39
2017-12-22T07:40:08.341Z,20.35
2017-12-22T07:40:57.048Z,20.33
2017-12-22T07:41:54.116Z,20.39
2017-12-22T07:42:22.143Z,20.39
2017-12-22T07:42:50.873Z,20.29
2017-12-22T07:43:19.693Z,20.32
2017-12-22T07:43:48.451Z,20.31
2017-12-22T07:44:17.303Z,20.31
2017-12-22T07:44:46.846Z,20.33
2017-12-22T07:45:20.572Z,20.29
2017-12-22T07:45:49.450Z,20.31
2017-12-22T07:46:32.777Z,20.26
2017-12-22T07:47:17.170Z,20.36
2017-12-22T07:47:45.515Z,20.35
2017-12-22T07:48:13.976Z,20.39
2017-12-22T07:49:28.786Z,20.35
2017-12-22T07:50:12.174Z,20.32
2017-12-22T07:50:54.939Z,20.33
2017-12-22T07:51:24.295Z,20.35
2017-12-22T07:52:53.023Z,20.35
2017-12-22T07:53:36.821Z,20.36
2017-12-22T07:54:05.808Z,20.29
2017-12-22T07:54:35.114Z,20.35
2017-12-22T07:55:32.318Z,20.32
2017-12-22T07:56:00.751Z,20.23
2017-12-22T07:56:44.860Z,20.31
2017-12-22T07:57:13.124Z,20.23
2017-12-22T07:57:41.427Z,20.33
2017-12-22T07:58:10.354Z,20.29
2017-12-22T08:00:04.919Z,20.26
2017-12-22T08:00:34.018Z,20.28
2017-12-22T08:01:04.275Z,20.29
2017-12-22T08:01:32.186Z,20.29
2017-12-22T08:02:01.369Z,20.29
2017-12-22T08:03:13.095Z,20.32
2017-12-22T08:03:55.635Z,20.31
2017-12-22T08:04:25.220Z,20.31
2017-12-22T08:04:53.125Z,20.36
2017-12-22T08:05:21.577Z,20.31
2017-12-22T08:05:51.854Z,20.31
2017-12-22T08:06:20.673Z,20.29
2017-12-22T08:08:14.680Z,20.33
2017-12-22T08:08:43.354Z,20.28
2017-12-22T08:09:12.544Z,20.29
2017-12-22T08:09:41.634Z,20.28
2017-12-22T08:10:25.391Z,20.31
2017-12-22T08:10:55.080Z,20.26
2017-12-22T08:11:37.985Z,20.29
2017-12-22T08:12:35.780Z,20.24
2017-12-22T08:13:04.872Z,20.31
2017-12-22T08:13:48.250Z,20.23
2017-12-22T08:14:16.492Z,20.18
2017-12-22T08:16:10.771Z,20.2
2017-12-22T08:16:39.199Z,20.17
2017-12-22T08:17:22.541Z,20.18
2017-12-22T08:18:05.098Z,20.05
2017-12-22T08:18:47.972Z,20.11
2017-12-22T08:19:17.199Z,20.21
2017-12-22T08:21:00.036Z,20.26
2017-12-22T08:21:58.900Z,20.35
2017-12-22T08:22:42.224Z,20.43
2017-12-22T08:23:11.875Z,20.42
2017-12-22T08:23:40.128Z,20.51
2017-12-22T08:24:08.982Z,20.47
2017-12-22T08:25:36.337Z,20.35